Time;durP1;ratioP1;P1;durP2;ratioP2;P2;SDS_P1;SDS_P2;PMS_P1;PMS_P2;Temp;Humidity;BMP_temperature;BMP_pressure;BME280_temperature;BME280_humidity;BME280_pressure;Samples;Min_cycle;Max_cycle;Signal;HPM_P1;HPM_P2
2023/04/24 00:00:42;;;;;;;;;1.00;1.00;;;;;;;;5250439;28;8925;-67
2023/04/24 00:03:13;;;;;;;;;0.80;0.80;;;;;;;;5227469;28;8813;-67
2023/04/24 00:05:44;;;;;;;;;1.00;1.00;;;;;;;;5210987;28;8943;-67
2023/04/24 00:08:15;;;;;;;;;0.00;0.00;;;;;;;;5232080;28;8827;-67
2023/04/24 00:10:46;;;;;;;;;0.25;0.25;;;;;;;;5232278;28;8856;-67
2023/04/24 00:13:17;;;;;;;;;1.20;1.20;;;;;;;;5232274;28;8783;-67
2023/04/24 00:15:48;;;;;;;;;1.00;1.00;;;;;;;;5248562;28;8794;-67
2023/04/24 00:18:19;;;;;;;;;0.80;0.80;;;;;;;;5232380;28;8795;-67
2023/04/24 00:20:50;;;;;;;;;1.00;1.00;;;;;;;;5248713;28;8869;-67
2023/04/24 00:23:21;;;;;;;;;1.00;1.00;;;;;;;;5238484;28;8838;-67
2023/04/24 00:25:52;;;;;;;;;0.80;0.80;;;;;;;;5227956;28;8786;-67
2023/04/24 00:28:23;;;;;;;;;0.60;0.60;;;;;;;;5211608;28;8805;-67
2023/04/24 00:30:54;;;;;;;;;1.00;1.00;;;;;;;;5228176;28;8982;-66
2023/04/24 00:33:25;;;;;;;;;0.00;0.00;;;;;;;;5229159;28;11536;-67
2023/04/24 00:35:56;;;;;;;;;2.00;2.00;;;;;;;;5227624;28;8956;-66
2023/04/24 00:38:27;;;;;;;;;0.33;0.33;;;;;;;;5240922;28;8815;-67
2023/04/24 00:40:57;;;;;;;;;0.00;0.00;;;;;;;;5249570;28;10504;-67
2023/04/24 00:43:28;;;;;;;;;1.00;1.00;;;;;;;;5236892;28;11453;-67
2023/04/24 00:46:01;;;;;;;;;1.50;1.50;;;;;;;;5228475;28;8789;-67
2023/04/24 00:48:32;;;;;;;;;1.00;1.00;;;;;;;;5211091;28;9575;-67
2023/04/24 00:51:24;;;;;;;;;1.00;1.00;;;;;;;;5228891;28;8782;-67
2023/04/24 00:53:55;;;;;;;;;1.00;1.00;;;;;;;;5227348;28;8812;-67
2023/04/24 00:56:26;;;;;;;;;0.75;0.75;;;;;;;;5227278;28;9486;-67
2023/04/24 00:58:57;;;;;;;;;0.40;0.40;;;;;;;;5241455;28;9556;-67
2023/04/24 01:01:28;;;;;;;;;0.00;0.00;;;;;;;;5231365;28;8787;-67
2023/04/24 01:04:01;;;;;;;;;0.00;0.00;;;;;;;;5246721;28;8775;-67
2023/04/24 01:06:51;;;;;;;;;1.00;1.00;;;;;;;;5249147;28;9594;-67
2023/04/24 01:09:26;;;;;;;;;0.80;0.80;;;;;;;;5231641;28;8829;-67
2023/04/24 01:11:57;;;;;;;;;1.00;1.00;;;;;;;;5210414;28;8806;-67
2023/04/24 01:14:28;;;;;;;;;1.00;1.00;;;;;;;;5210423;28;8806;-67
2023/04/24 01:17:00;;;;;;;;;0.80;0.80;;;;;;;;5228025;28;8802;-66
2023/04/24 01:19:32;;;;;;;;;0.60;0.60;;;;;;;;5210516;28;8863;-67
2023/04/24 01:22:04;;;;;;;;;0.00;0.00;;;;;;;;5194168;28;8758;-67
2023/04/24 01:24:36;;;;;;;;;0.00;0.00;;;;;;;;5226723;28;8831;-67
2023/04/24 01:27:25;;;;;;;;;1.00;1.00;;;;;;;;5228324;28;8785;-66
2023/04/24 01:29:57;;;;;;;;;1.00;1.00;;;;;;;;5210137;28;8806;-67
2023/04/24 01:32:28;;;;;;;;;0.60;0.60;;;;;;;;5226779;28;9934;-67
2023/04/24 01:34:59;;;;;;;;;1.00;1.00;;;;;;;;5226372;28;8801;-67
2023/04/24 01:37:32;;;;;;;;;2.00;2.00;;;;;;;;5235488;28;8860;-67
2023/04/24 01:40:07;;;;;;;;;1.00;1.00;;;;;;;;5246965;28;8783;-67
2023/04/24 01:42:38;;;;;;;;;0.20;0.20;;;;;;;;5246664;28;8763;-68
2023/04/24 01:45:10;;;;;;;;;1.00;1.00;;;;;;;;5247145;28;8778;-67
2023/04/24 01:47:42;;;;;;;;;2.00;2.00;;;;;;;;5247562;28;8783;-67
2023/04/24 01:50:13;;;;;;;;;2.40;2.40;;;;;;;;5248073;28;8760;-68
2023/04/24 01:52:44;;;;;;;;;4.00;4.00;;;;;;;;5247039;28;8779;-67
2023/04/24 01:55:15;;;;;;;;;5.40;5.40;;;;;;;;5230268;28;8928;-67
2023/04/24 01:58:04;;;;;;;;;4.60;4.60;;;;;;;;5236242;28;8773;-68
2023/04/24 02:00:35;;;;;;;;;8.20;8.20;;;;;;;;5229867;28;8796;-68
2023/04/24 02:03:07;;;;;;;;;3.50;3.00;;;;;;;;5245878;28;8824;-67
2023/04/24 02:05:56;;;;;;;;;7.00;7.00;;;;;;;;5246655;28;11434;-67
2023/04/24 02:08:28;;;;;;;;;4.00;4.00;;;;;;;;5246627;28;8857;-67
2023/04/24 02:11:01;;;;;;;;;4.20;4.20;;;;;;;;5213320;28;8771;-67
2023/04/24 02:13:32;;;;;;;;;1.80;1.80;;;;;;;;5230032;28;8893;-67
2023/04/24 02:16:04;;;;;;;;;2.00;2.00;;;;;;;;5245239;28;8796;-68
2023/04/24 02:18:54;;;;;;;;;2.00;2.00;;;;;;;;5228838;28;9551;-67
2023/04/24 02:21:25;;;;;;;;;1.80;1.80;;;;;;;;5225570;28;9659;-67
2023/04/24 02:23:56;;;;;;;;;1.40;1.40;;;;;;;;5226752;28;8896;-69
2023/04/24 02:26:27;;;;;;;;;2.00;2.00;;;;;;;;5225756;28;8789;-68
2023/04/24 02:28:59;;;;;;;;;1.60;1.60;;;;;;;;5208790;28;8874;-67
2023/04/24 02:31:30;;;;;;;;;2.00;2.00;;;;;;;;5233813;28;8922;-68
2023/04/24 02:34:01;;;;;;;;;103.50;92.50;;;;;;;;5245933;28;8965;-68
2023/04/24 02:36:32;;;;;;;;;6.25;6.25;;;;;;;;5245672;28;11579;-68
2023/04/24 02:39:03;;;;;;;;;2.40;2.40;;;;;;;;5225387;28;10372;-67
2023/04/24 02:41:34;;;;;;;;;2.00;2.00;;;;;;;;5225029;28;8902;-67
2023/04/24 02:44:05;;;;;;;;;2.00;2.00;;;;;;;;5226467;28;8928;-69
2023/04/24 02:46:36;;;;;;;;;1.00;1.00;;;;;;;;5231531;28;8817;-69
2023/04/24 02:49:07;;;;;;;;;1.00;1.00;;;;;;;;5215243;28;8830;-69
2023/04/24 02:51:40;;;;;;;;;2.20;2.20;;;;;;;;5219398;28;8816;-69
2023/04/24 02:54:12;;;;;;;;;2.60;2.60;;;;;;;;5245298;28;8833;-67
2023/04/24 02:56:43;;;;;;;;;7.25;7.25;;;;;;;;5244490;28;8791;-68
2023/04/24 02:59:14;;;;;;;;;2.00;2.00;;;;;;;;5212991;28;11512;-67
2023/04/24 03:01:45;;;;;;;;;1.00;1.00;;;;;;;;5232658;28;8793;-67
2023/04/24 03:04:16;;;;;;;;;2.00;2.00;;;;;;;;5224665;28;8828;-68
2023/04/24 03:06:47;;;;;;;;;2.00;2.00;;;;;;;;5241372;28;8794;-68
2023/04/24 03:09:18;;;;;;;;;1.00;1.00;;;;;;;;5224858;28;8809;-67
2023/04/24 03:11:49;;;;;;;;;0.60;0.60;;;;;;;;5226259;28;8800;-68
2023/04/24 03:14:20;;;;;;;;;3.00;3.00;;;;;;;;5225573;28;8794;-68
2023/04/24 03:16:51;;;;;;;;;6.00;5.00;;;;;;;;5235600;28;9222;-67
2023/04/24 03:19:22;;;;;;;;;0.00;0.00;;;;;;;;5245227;28;9050;-69
2023/04/24 03:22:08;;;;;;;;;1.00;1.00;;;;;;;;5223527;28;8801;-68
2023/04/24 03:24:40;;;;;;;;;1.00;1.00;;;;;;;;5224586;28;8774;-67
2023/04/24 03:27:30;;;;;;;;;1.00;1.00;;;;;;;;5224826;28;8766;-67
2023/04/24 03:30:08;;;;;;;;;2.00;2.00;;;;;;;;5239576;28;8805;-67
2023/04/24 03:32:53;;;;;;;;;1.00;1.00;;;;;;;;5208775;28;8801;-67
2023/04/24 03:35:28;;;;;;;;;0.25;0.25;;;;;;;;5207504;28;8825;-68
2023/04/24 03:38:00;;;;;;;;;0.50;0.50;;;;;;;;5236603;28;8778;-69
2023/04/24 03:40:52;;;;;;;;;0.50;0.50;;;;;;;;5243576;28;8807;-69
2023/04/24 03:43:39;;;;;;;;;1.50;1.50;;;;;;;;5245006;28;8783;-74
2023/04/24 03:46:11;;;;;;;;;1.00;1.00;;;;;;;;5228633;28;8786;-72
2023/04/24 03:48:47;;;;;;;;;1.00;1.00;;;;;;;;5245244;28;8802;-72
2023/04/24 03:51:22;;;;;;;;;3.50;3.50;;;;;;;;5244561;28;8879;-71
2023/04/24 03:53:55;;;;;;;;;1.25;1.25;;;;;;;;5224294;28;8788;-71
2023/04/24 03:56:28;;;;;;;;;0.00;0.00;;;;;;;;5207582;28;8790;-74
2023/04/24 03:59:00;;;;;;;;;8.40;8.40;;;;;;;;5244619;28;9588;-74
2023/04/24 04:01:49;;;;;;;;;7.20;7.20;;;;;;;;5246230;28;9495;-74
2023/04/24 04:04:22;;;;;;;;;28.60;28.60;;;;;;;;5244886;28;8791;-73
2023/04/24 04:06:54;;;;;;;;;16.60;16.60;;;;;;;;5211712;28;8779;-72
2023/04/24 04:09:27;;;;;;;;;79.60;69.40;;;;;;;;5228380;28;8811;-73
2023/04/24 04:11:58;;;;;;;;;23.40;23.40;;;;;;;;5205156;28;8794;-75
2023/04/24 04:14:30;;;;;;;;;22.20;22.00;;;;;;;;5224108;28;9484;-72
2023/04/24 04:17:01;;;;;;;;;9.00;9.00;;;;;;;;5223483;28;8824;-73
2023/04/24 04:19:32;;;;;;;;;7.00;7.00;;;;;;;;5223804;28;9002;-73
2023/04/24 04:22:04;;;;;;;;;15.00;15.00;;;;;;;;5223853;28;8797;-72
2023/04/24 04:24:47;;;;;;;;;6.25;6.25;;;;;;;;5209200;28;8810;-73
2023/04/24 04:27:21;;;;;;;;;9.20;9.20;;;;;;;;5191051;28;8810;-73
2023/04/24 04:30:04;;;;;;;;;26.60;26.60;;;;;;;;5211464;28;8810;-74
2023/04/24 04:32:40;;;;;;;;;22.00;21.80;;;;;;;;5228762;28;8771;-74
2023/04/24 04:35:12;;;;;;;;;5.20;5.20;;;;;;;;5211153;28;8819;-73
2023/04/24 04:37:44;;;;;;;;;5.00;5.00;;;;;;;;5206710;28;8801;-72
2023/04/24 04:40:34;;;;;;;;;5.00;5.00;;;;;;;;5226699;28;8797;-71
2023/04/24 04:43:10;;;;;;;;;3.00;3.00;;;;;;;;5226715;28;8800;-75
2023/04/24 04:45:49;;;;;;;;;13.60;13.40;;;;;;;;5225810;28;8794;-75
2023/04/24 04:48:31;;;;;;;;;12.60;12.60;;;;;;;;5210032;28;8844;-76
2023/04/24 04:51:05;;;;;;;;;13.60;13.60;;;;;;;;5225578;28;8809;-68
2023/04/24 04:53:37;;;;;;;;;12.00;12.00;;;;;;;;5225733;28;8795;-72
2023/04/24 04:56:08;;;;;;;;;10.00;10.00;;;;;;;;5225419;28;8825;-74
2023/04/24 04:58:44;;;;;;;;;7.25;7.25;;;;;;;;5224642;28;8806;-72
2023/04/24 05:01:19;;;;;;;;;3.75;3.75;;;;;;;;5241861;28;8778;-73
2023/04/24 05:03:53;;;;;;;;;3.75;3.75;;;;;;;;5241903;28;8883;-73
2023/04/24 05:06:25;;;;;;;;;17.40;17.40;;;;;;;;5208716;28;8810;-68
2023/04/24 05:08:59;;;;;;;;;49.80;42.20;;;;;;;;5241645;28;8852;-68
2023/04/24 05:11:46;;;;;;;;;9.25;9.25;;;;;;;;5230579;28;8929;-73
2023/04/24 05:14:36;;;;;;;;;2.75;2.75;;;;;;;;5231771;28;8875;-68
2023/04/24 05:17:07;;;;;;;;;3.25;3.25;;;;;;;;5240712;28;9529;-69
2023/04/24 05:19:38;;;;;;;;;5.50;5.50;;;;;;;;5208144;28;8855;-68
2023/04/24 05:22:11;;;;;;;;;6.50;6.50;;;;;;;;5225095;28;8812;-70
2023/04/24 05:24:51;;;;;;;;;4.75;4.75;;;;;;;;5225161;28;8908;-69
2023/04/24 05:27:48;;;;;;;;;23.80;23.80;;;;;;;;5214830;28;8773;-68
2023/04/24 05:30:22;;;;;;;;;11.50;11.50;;;;;;;;5208031;28;8788;-69
2023/04/24 05:32:54;;;;;;;;;4.25;4.25;;;;;;;;5224719;28;8924;-68
2023/04/24 05:35:25;;;;;;;;;4.67;4.67;;;;;;;;5214581;28;8971;-68
2023/04/24 05:37:56;;;;;;;;;3.00;3.00;;;;;;;;5241389;28;8799;-68
2023/04/24 05:40:27;;;;;;;;;5.25;5.25;;;;;;;;5229879;28;9475;-68
2023/04/24 05:42:59;;;;;;;;;4.75;4.75;;;;;;;;5230798;28;8767;-68
2023/04/24 05:45:30;;;;;;;;;3.25;3.25;;;;;;;;5246892;28;9543;-68
2023/04/24 05:48:02;;;;;;;;;5.50;5.50;;;;;;;;5246884;28;8783;-67
2023/04/24 05:50:52;;;;;;;;;4.50;4.50;;;;;;;;5246941;28;8775;-68
2023/04/24 05:53:23;;;;;;;;;5.00;5.00;;;;;;;;5246640;28;8842;-68
2023/04/24 05:55:54;;;;;;;;;4.25;4.25;;;;;;;;5247878;28;8775;-67
2023/04/24 05:58:25;;;;;;;;;3.75;3.75;;;;;;;;5228907;28;8790;-68
2023/04/24 06:00:58;;;;;;;;;13.75;13.75;;;;;;;;5209352;28;8778;-67
2023/04/24 06:03:29;;;;;;;;;5.50;5.50;;;;;;;;5225659;28;8782;-67
2023/04/24 06:06:00;;;;;;;;;5.25;5.25;;;;;;;;5227333;28;8800;-67
2023/04/24 06:08:32;;;;;;;;;4.00;4.00;;;;;;;;5209239;28;9505;-67
2023/04/24 06:11:22;;;;;;;;;5.50;5.50;;;;;;;;5229162;28;8758;-67
2023/04/24 06:13:53;;;;;;;;;3.75;3.75;;;;;;;;5247588;28;8779;-67
2023/04/24 06:16:44;;;;;;;;;4.00;4.00;;;;;;;;5243401;28;8822;-68
2023/04/24 06:19:25;;;;;;;;;5.00;5.00;;;;;;;;5234732;28;8811;-68
2023/04/24 06:21:56;;;;;;;;;3.25;3.25;;;;;;;;5245433;28;8794;-68
2023/04/24 06:24:27;;;;;;;;;4.00;4.00;;;;;;;;5229628;28;8837;-68
2023/04/24 06:27:16;;;;;;;;;4.25;4.25;;;;;;;;5246343;28;12165;-68
2023/04/24 06:29:54;;;;;;;;;4.00;4.00;;;;;;;;5229463;28;8815;-67
2023/04/24 06:32:43;;;;;;;;;4.00;4.00;;;;;;;;5246278;28;8803;-68
2023/04/24 06:35:14;;;;;;;;;4.00;4.00;;;;;;;;5247447;28;8799;-68
2023/04/24 06:37:45;;;;;;;;;4.75;4.75;;;;;;;;5233070;28;11537;-69
2023/04/24 06:40:18;;;;;;;;;4.00;4.00;;;;;;;;5225201;28;8813;-68
2023/04/24 06:42:50;;;;;;;;;5.50;5.50;;;;;;;;5225270;28;8778;-69
2023/04/24 06:45:21;;;;;;;;;9.00;9.00;;;;;;;;5229026;28;9514;-68
2023/04/24 06:47:52;;;;;;;;;5.00;5.00;;;;;;;;5245788;28;11515;-68
2023/04/24 06:50:24;;;;;;;;;4.50;4.50;;;;;;;;5229090;28;8794;-68
2023/04/24 06:53:14;;;;;;;;;5.00;5.00;;;;;;;;5245871;28;8763;-67
2023/04/24 06:55:45;;;;;;;;;6.25;6.25;;;;;;;;5224187;28;8808;-69
2023/04/24 06:58:16;;;;;;;;;5.25;5.25;;;;;;;;5224121;28;8947;-69
2023/04/24 07:00:47;;;;;;;;;5.00;5.00;;;;;;;;5228096;28;8924;-69
2023/04/24 07:03:18;;;;;;;;;14.50;14.00;;;;;;;;5242328;28;9563;-69
2023/04/24 07:06:07;;;;;;;;;15.25;15.25;;;;;;;;5231843;28;8863;-69
2023/04/24 07:08:39;;;;;;;;;8.75;8.25;;;;;;;;5206144;28;8826;-69
2023/04/24 07:11:09;;;;;;;;;5.00;4.25;;;;;;;;5223046;28;8821;-70
2023/04/24 07:13:41;;;;;;;;;11.00;11.00;;;;;;;;5222945;28;9600;-70
2023/04/24 07:16:13;;;;;;;;;6.50;6.50;;;;;;;;5222708;28;8927;-69
2023/04/24 07:18:44;;;;;;;;;6.50;6.50;;;;;;;;5222787;28;8809;-70
2023/04/24 07:21:15;;;;;;;;;7.00;6.50;;;;;;;;5222841;28;8814;-70
2023/04/24 07:23:46;;;;;;;;;8.00;8.00;;;;;;;;5241744;28;8880;-69
2023/04/24 07:26:17;;;;;;;;;6.00;6.00;;;;;;;;5244510;28;8787;-69
2023/04/24 07:28:47;;;;;;;;;5.33;5.33;;;;;;;;5243151;28;8806;-69
2023/04/24 07:31:18;;;;;;;;;5.00;5.00;;;;;;;;5244800;28;8938;-69
2023/04/24 07:33:50;;;;;;;;;4.00;4.00;;;;;;;;5243626;28;8846;-69
2023/04/24 07:36:21;;;;;;;;;5.75;5.75;;;;;;;;5242416;28;8827;-69
2023/04/24 07:38:52;;;;;;;;;5.25;5.25;;;;;;;;5226686;28;8791;-69
2023/04/24 07:41:24;;;;;;;;;3.50;3.50;;;;;;;;5226418;28;8779;-70
2023/04/24 07:43:54;;;;;;;;;3.75;3.75;;;;;;;;5243343;28;9514;-69
2023/04/24 07:46:27;;;;;;;;;4.67;4.67;;;;;;;;5231057;28;8798;-69
2023/04/24 07:48:59;;;;;;;;;3.50;3.50;;;;;;;;5239140;28;8847;-69
2023/04/24 07:51:30;;;;;;;;;6.00;6.00;;;;;;;;5209782;28;8875;-68
2023/04/24 07:54:02;;;;;;;;;4.50;4.50;;;;;;;;5231504;28;9626;-69
2023/04/24 07:56:34;;;;;;;;;3.50;3.50;;;;;;;;5228286;28;8783;-68
2023/04/24 07:59:05;;;;;;;;;4.00;4.00;;;;;;;;5241432;28;8815;-69
2023/04/24 08:01:37;;;;;;;;;5.00;5.00;;;;;;;;5226544;28;9581;-69
2023/04/24 08:04:08;;;;;;;;;3.00;3.00;;;;;;;;5247712;28;8824;-69
2023/04/24 08:06:39;;;;;;;;;5.33;5.33;;;;;;;;5246821;28;8796;-71
2023/04/24 08:09:10;;;;;;;;;3.33;3.33;;;;;;;;5264044;28;11436;-69
2023/04/24 08:11:40;;;;;;;;;8.00;8.00;;;;;;;;5248946;28;11459;-68
2023/04/24 08:14:13;;;;;;;;;3.67;3.67;;;;;;;;5245540;28;8827;-70
2023/04/24 08:16:43;;;;;;;;;4.25;4.25;;;;;;;;5213488;28;11515;-68
2023/04/24 08:19:15;;;;;;;;;5.33;5.33;;;;;;;;5248391;28;8795;-69
2023/04/24 08:21:46;;;;;;;;;4.00;4.00;;;;;;;;5214044;28;10195;-69
2023/04/24 08:24:16;;;;;;;;;4.33;4.33;;;;;;;;5228606;28;9548;-68
2023/04/24 08:26:50;;;;;;;;;6.00;6.00;;;;;;;;5229021;28;10535;-67
2023/04/24 08:29:39;;;;;;;;;7.75;7.75;;;;;;;;5228398;28;9667;-68
2023/04/24 08:32:10;;;;;;;;;7.67;7.67;;;;;;;;5237684;28;8929;-67
2023/04/24 08:34:40;;;;;;;;;8.33;8.33;;;;;;;;5230652;28;12279;-67
2023/04/24 08:37:12;;;;;;;;;4.67;4.67;;;;;;;;5227543;28;8817;-68
2023/04/24 08:39:43;;;;;;;;;5.25;5.25;;;;;;;;5243551;28;10736;-67
2023/04/24 08:42:14;;;;;;;;;6.00;6.00;;;;;;;;5225578;28;8836;-67
2023/04/24 08:44:45;;;;;;;;;5.00;4.50;;;;;;;;5212430;28;11566;-67
2023/04/24 08:47:17;;;;;;;;;2.75;2.75;;;;;;;;5238851;28;9546;-67
2023/04/24 08:50:07;;;;;;;;;4.00;4.00;;;;;;;;5229899;28;8802;-67
2023/04/24 08:52:38;;;;;;;;;2.25;2.25;;;;;;;;5233793;28;8816;-68
2023/04/24 08:55:10;;;;;;;;;3.33;3.33;;;;;;;;5227459;28;9555;-68
2023/04/24 08:58:00;;;;;;;;;2.00;2.00;;;;;;;;5228606;28;11559;-68
2023/04/24 09:00:31;;;;;;;;;3.00;3.00;;;;;;;;5243794;28;8931;-75
2023/04/24 09:03:04;;;;;;;;;1.25;1.25;;;;;;;;5194319;28;8837;-76
2023/04/24 09:05:35;;;;;;;;;0.00;0.00;;;;;;;;5194526;28;8801;-76
2023/04/24 09:08:25;;;;;;;;;2.25;2.25;;;;;;;;5213143;28;8837;-76
2023/04/24 09:10:58;;;;;;;;;11.50;11.25;;;;;;;;5210421;28;8802;-77
2023/04/24 09:13:30;;;;;;;;;12.25;12.25;;;;;;;;5210494;28;8781;-76
2023/04/24 09:16:01;;;;;;;;;8.00;8.00;;;;;;;;5194063;28;8809;-76
2023/04/24 09:18:33;;;;;;;;;4.75;4.75;;;;;;;;5194000;28;8766;-76
2023/04/24 09:21:07;;;;;;;;;19.00;18.75;;;;;;;;5210277;28;8794;-77
2023/04/24 09:23:39;;;;;;;;;8.25;8.00;;;;;;;;5210167;28;8793;-77
2023/04/24 09:26:10;;;;;;;;;2.75;2.75;;;;;;;;5209592;28;8921;-76
2023/04/24 09:28:41;;;;;;;;;3.25;3.25;;;;;;;;5193699;28;8810;-76
2023/04/24 09:31:15;;;;;;;;;5.00;5.00;;;;;;;;5193793;28;8864;-75
2023/04/24 09:34:05;;;;;;;;;3.75;3.75;;;;;;;;5239467;28;8802;-76
2023/04/24 09:36:38;;;;;;;;;3.50;3.50;;;;;;;;5204695;28;8832;-78
2023/04/24 09:39:16;;;;;;;;;3.25;3.25;;;;;;;;5194494;28;8796;-77
2023/04/24 09:41:47;;;;;;;;;2.50;2.50;;;;;;;;5209578;28;8774;-78
2023/04/24 09:44:22;;;;;;;;;4.25;4.25;;;;;;;;5226429;28;9532;-78
2023/04/24 09:46:55;;;;;;;;;5.00;5.00;;;;;;;;5243250;28;8785;-76
2023/04/24 09:49:44;;;;;;;;;3.25;3.25;;;;;;;;5226900;28;9533;-74
2023/04/24 09:52:15;;;;;;;;;3.00;3.00;;;;;;;;5211980;28;8795;-74
2023/04/24 09:54:52;;;;;;;;;3.25;3.25;;;;;;;;5204980;28;8908;-75
2023/04/24 09:57:23;;;;;;;;;2.00;2.00;;;;;;;;5204034;28;9641;-74
2023/04/24 09:59:54;;;;;;;;;1.50;1.50;;;;;;;;5209642;28;8778;-75
2023/04/24 10:02:25;;;;;;;;;2.00;2.00;;;;;;;;5228978;28;8780;-76
2023/04/24 10:04:58;;;;;;;;;3.00;3.00;;;;;;;;5209647;28;9109;-77
2023/04/24 10:07:32;;;;;;;;;4.00;4.00;;;;;;;;5199772;28;8794;-76
2023/04/24 10:10:04;;;;;;;;;1.00;1.00;;;;;;;;5207567;28;8868;-77
2023/04/24 10:12:54;;;;;;;;;0.75;0.75;;;;;;;;5223099;28;8821;-77
2023/04/24 10:15:26;;;;;;;;;2.00;2.00;;;;;;;;5219589;28;9007;-78
2023/04/24 10:17:58;;;;;;;;;1.75;1.75;;;;;;;;5225072;28;9645;-77
2023/04/24 10:20:33;;;;;;;;;0.00;0.00;;;;;;;;5207980;28;8874;-77
2023/04/24 10:23:04;;;;;;;;;1.75;1.75;;;;;;;;5224301;28;8814;-77
2023/04/24 10:25:36;;;;;;;;;2.50;2.00;;;;;;;;5208767;28;8805;-77
2023/04/24 10:28:08;;;;;;;;;2.00;2.00;;;;;;;;5206274;28;8817;-69
2023/04/24 10:30:58;;;;;;;;;2.00;2.00;;;;;;;;5225800;28;8936;-70
2023/04/24 10:33:30;;;;;;;;;2.00;2.00;;;;;;;;5240246;28;8798;-69
2023/04/24 10:36:01;;;;;;;;;1.25;1.25;;;;;;;;5229201;28;8821;-69
2023/04/24 10:38:34;;;;;;;;;3.50;3.50;;;;;;;;5224114;28;8825;-69
2023/04/24 10:41:22;;;;;;;;;2.00;2.00;;;;;;;;5243378;28;8968;-70
2023/04/24 10:44:07;;;;;;;;;0.00;0.00;;;;;;;;5243686;28;8823;-69
2023/04/24 10:46:38;;;;;;;;;3.00;3.00;;;;;;;;5226820;28;8957;-69
2023/04/24 10:49:28;;;;;;;;;3.50;3.50;;;;;;;;5244386;28;8851;-70
2023/04/24 10:52:01;;;;;;;;;1.50;1.50;;;;;;;;5226796;28;8832;-70
2023/04/24 10:54:36;;;;;;;;;3.00;3.00;;;;;;;;5238568;28;8815;-70
2023/04/24 10:57:28;;;;;;;;;2.25;2.25;;;;;;;;5217567;28;8897;-70
2023/04/24 11:00:19;;;;;;;;;1.25;1.25;;;;;;;;5207709;28;8826;-68
2023/04/24 11:02:52;;;;;;;;;4.00;3.75;;;;;;;;5208646;28;8790;-67
2023/04/24 11:05:43;;;;;;;;;0.00;0.00;;;;;;;;5208906;28;8833;-69
2023/04/24 11:08:45;;;;;;;;;3.00;3.00;;;;;;;;5213815;28;8825;-70
2023/04/24 11:11:17;;;;;;;;;4.00;4.00;;;;;;;;5232911;28;8799;-69
2023/04/24 11:14:08;;;;;;;;;6.00;6.00;;;;;;;;5230467;28;8813;-68
2023/04/24 11:17:00;;;;;;;;;2.75;2.75;;;;;;;;5196645;28;8801;-69
2023/04/24 11:19:33;;;;;;;;;1.50;1.50;;;;;;;;5208091;28;8778;-68
2023/04/24 11:22:23;;;;;;;;;5.50;5.50;;;;;;;;5239736;28;8834;-69
2023/04/24 11:24:54;;;;;;;;;6.00;6.00;;;;;;;;5244854;28;8807;-69
2023/04/24 11:27:44;;;;;;;;;4.75;4.75;;;;;;;;5211689;28;8805;-69
2023/04/24 11:30:17;;;;;;;;;5.50;5.50;;;;;;;;5234955;28;9566;-69
2023/04/24 11:32:50;;;;;;;;;4.00;4.00;;;;;;;;5244960;28;8790;-69
2023/04/24 11:35:40;;;;;;;;;3.50;3.50;;;;;;;;5239924;28;8801;-68
2023/04/24 11:38:29;;;;;;;;;5.00;5.00;;;;;;;;5234771;28;8859;-68
2023/04/24 11:41:03;;;;;;;;;4.00;4.00;;;;;;;;5214938;28;9492;-68
2023/04/24 11:43:34;;;;;;;;;4.00;4.00;;;;;;;;5225523;28;8789;-68
2023/04/24 11:46:05;;;;;;;;;4.00;4.00;;;;;;;;5212678;28;8871;-68
2023/04/24 11:48:39;;;;;;;;;22.67;22.00;;;;;;;;5226778;28;8822;-68
2023/04/24 11:51:12;;;;;;;;;108.80;91.40;;;;;;;;5214668;28;8816;-68
2023/04/24 11:53:43;;;;;;;;;26.75;25.00;;;;;;;;5230899;28;9516;-69
2023/04/24 11:56:17;;;;;;;;;21.75;21.75;;;;;;;;5232216;28;8844;-69
2023/04/24 11:58:51;;;;;;;;;16.00;16.00;;;;;;;;5231472;28;8804;-68
2023/04/24 12:01:23;;;;;;;;;21.50;21.50;;;;;;;;5214622;28;9530;-68
2023/04/24 12:03:59;;;;;;;;;6.50;6.50;;;;;;;;5214218;28;8822;-68
2023/04/24 12:06:30;;;;;;;;;5.00;5.00;;;;;;;;5215064;28;9586;-68
2023/04/24 12:09:01;;;;;;;;;7.00;7.00;;;;;;;;5231748;28;8793;-68
2023/04/24 12:11:32;;;;;;;;;4.25;4.25;;;;;;;;5231003;28;11472;-68
2023/04/24 12:14:10;;;;;;;;;4.00;4.00;;;;;;;;5230944;28;8819;-68
2023/04/24 12:16:41;;;;;;;;;4.75;4.75;;;;;;;;5232419;28;9529;-69
2023/04/24 12:19:17;;;;;;;;;4.50;4.50;;;;;;;;5230803;28;8855;-68
2023/04/24 12:22:02;;;;;;;;;4.50;4.50;;;;;;;;5214792;28;8819;-69
2023/04/24 12:24:33;;;;;;;;;5.00;5.00;;;;;;;;5230933;28;8868;-68
2023/04/24 12:27:04;;;;;;;;;4.00;4.00;;;;;;;;5231187;28;8778;-67
2023/04/24 12:29:34;;;;;;;;;4.00;4.00;;;;;;;;5251259;28;10856;-68
2023/04/24 12:32:15;;;;;;;;;5.00;5.00;;;;;;;;5251545;28;8767;-69
2023/04/24 12:34:46;;;;;;;;;4.00;4.00;;;;;;;;5217975;28;11488;-69
2023/04/24 12:37:17;;;;;;;;;5.00;5.00;;;;;;;;5248421;28;8906;-69
2023/04/24 12:40:00;;;;;;;;;4.00;4.00;;;;;;;;5216627;28;8803;-69
2023/04/24 12:42:31;;;;;;;;;4.50;4.50;;;;;;;;5247295;28;8814;-69
2023/04/24 12:45:04;;;;;;;;;3.75;3.75;;;;;;;;5232886;28;8829;-69
2023/04/24 12:47:36;;;;;;;;;5.00;5.00;;;;;;;;5231591;28;8810;-69
2023/04/24 12:50:07;;;;;;;;;1.00;1.00;;;;;;;;5230281;28;8963;-70
2023/04/24 12:52:39;;;;;;;;;5.00;5.00;;;;;;;;5228609;28;8943;-69
2023/04/24 12:55:10;;;;;;;;;4.75;4.75;;;;;;;;5212229;28;8820;-68
2023/04/24 12:57:41;;;;;;;;;3.25;3.25;;;;;;;;5212152;28;8802;-68
2023/04/24 13:00:12;;;;;;;;;5.50;5.50;;;;;;;;5208824;28;8816;-70
2023/04/24 13:02:43;;;;;;;;;5.00;5.00;;;;;;;;5223774;28;8814;-69
2023/04/24 13:05:15;;;;;;;;;5.00;5.00;;;;;;;;5192458;28;8821;-70
2023/04/24 13:07:46;;;;;;;;;6.50;5.00;;;;;;;;5245388;28;10547;-69
2023/04/24 13:10:17;;;;;;;;;6.00;6.00;;;;;;;;5247082;28;8838;-69
2023/04/24 13:12:49;;;;;;;;;5.75;5.75;;;;;;;;5245498;28;11490;-69
2023/04/24 13:15:38;;;;;;;;;7.75;7.75;;;;;;;;5245979;28;8810;-68
2023/04/24 13:18:09;;;;;;;;;3.33;3.33;;;;;;;;5246927;28;8868;-70
2023/04/24 13:20:41;;;;;;;;;4.00;4.00;;;;;;;;5244040;28;8787;-68
2023/04/24 13:23:12;;;;;;;;;5.00;5.00;;;;;;;;5228897;28;8835;-67
2023/04/24 13:25:43;;;;;;;;;4.00;4.00;;;;;;;;5244922;28;8874;-67
2023/04/24 13:28:13;;;;;;;;;5.67;5.67;;;;;;;;5221039;28;8848;-68
2023/04/24 13:30:44;;;;;;;;;3.25;3.25;;;;;;;;5225129;28;8789;-67
2023/04/24 13:33:15;;;;;;;;;5.00;4.75;;;;;;;;5224760;28;8801;-67
2023/04/24 13:35:46;;;;;;;;;5.50;5.50;;;;;;;;5228143;28;9549;-67
2023/04/24 13:38:17;;;;;;;;;5.00;5.00;;;;;;;;5229540;28;8805;-67
2023/04/24 13:40:48;;;;;;;;;5.00;5.00;;;;;;;;5208045;28;8891;-68
2023/04/24 13:43:37;;;;;;;;;4.50;4.50;;;;;;;;5225397;28;11601;-66
2023/04/24 13:46:08;;;;;;;;;4.00;4.00;;;;;;;;5224253;28;8812;-67
2023/04/24 13:48:39;;;;;;;;;4.00;4.00;;;;;;;;5237281;28;8810;-67
2023/04/24 13:51:10;;;;;;;;;17.33;17.33;;;;;;;;5237482;28;8799;-68
2023/04/24 13:53:41;;;;;;;;;20.33;20.33;;;;;;;;5246241;28;10373;-67
2023/04/24 13:56:13;;;;;;;;;8.67;8.67;;;;;;;;5245944;28;8780;-67
2023/04/24 13:58:44;;;;;;;;;4.75;4.75;;;;;;;;5244208;28;8960;-67
2023/04/24 14:01:16;;;;;;;;;3.67;3.67;;;;;;;;5245926;28;9542;-67
2023/04/24 14:03:46;;;;;;;;;6.00;6.00;;;;;;;;5243432;28;11470;-67
2023/04/24 14:06:35;;;;;;;;;7.00;7.00;;;;;;;;5234957;28;8948;-67
2023/04/24 14:09:06;;;;;;;;;8.00;8.00;;;;;;;;5240255;28;8829;-67
2023/04/24 14:11:37;;;;;;;;;4.67;4.67;;;;;;;;5223902;28;8781;-68
2023/04/24 14:14:08;;;;;;;;;5.00;5.00;;;;;;;;5223730;28;11397;-66
2023/04/24 14:16:39;;;;;;;;;4.25;4.25;;;;;;;;5237477;28;11488;-69
2023/04/24 14:19:10;;;;;;;;;8.00;8.00;;;;;;;;5224898;28;8871;-69
2023/04/24 14:21:41;;;;;;;;;7.67;7.67;;;;;;;;5224934;28;11531;-68
2023/04/24 14:24:12;;;;;;;;;7.50;7.50;;;;;;;;5240404;28;9482;-68
2023/04/24 14:26:43;;;;;;;;;0.00;0.00;;;;;;;;5247283;28;8802;-68
2023/04/24 14:29:14;;;;;;;;;4.00;4.00;;;;;;;;5245033;28;11494;-67
2023/04/24 14:31:45;;;;;;;;;4.75;4.25;;;;;;;;5245557;28;8805;-67
2023/04/24 14:34:16;;;;;;;;;7.00;6.67;;;;;;;;5228944;28;8789;-67
2023/04/24 14:36:47;;;;;;;;;6.25;6.25;;;;;;;;5226598;28;9037;-67
2023/04/24 14:39:19;;;;;;;;;5.50;5.50;;;;;;;;5226353;28;8793;-67
2023/04/24 14:41:50;;;;;;;;;6.75;6.75;;;;;;;;5225199;28;8804;-66
2023/04/24 14:44:21;;;;;;;;;7.00;7.00;;;;;;;;5231630;28;8825;-66
2023/04/24 14:46:52;;;;;;;;;4.00;4.00;;;;;;;;5225410;28;8804;-67
2023/04/24 14:49:24;;;;;;;;;3.50;3.50;;;;;;;;5230165;28;8815;-67
2023/04/24 14:52:13;;;;;;;;;6.00;5.00;;;;;;;;5237477;28;8793;-68
2023/04/24 14:54:44;;;;;;;;;3.75;3.75;;;;;;;;5191842;28;9586;-68
2023/04/24 14:57:15;;;;;;;;;6.25;6.25;;;;;;;;5208473;28;8808;-67
2023/04/24 14:59:46;;;;;;;;;4.33;4.33;;;;;;;;5226223;28;9525;-68
2023/04/24 15:02:17;;;;;;;;;8.00;8.00;;;;;;;;5224828;28;8790;-69
2023/04/24 15:04:48;;;;;;;;;9.00;9.00;;;;;;;;5224239;28;11544;-69
2023/04/24 15:07:19;;;;;;;;;10.67;10.67;;;;;;;;5225366;28;10065;-69
2023/04/24 15:10:08;;;;;;;;;7.00;7.00;;;;;;;;5235061;28;8836;-68
2023/04/24 15:12:39;;;;;;;;;5.50;5.50;;;;;;;;5225967;28;9532;-67
2023/04/24 15:15:10;;;;;;;;;6.50;6.50;;;;;;;;5208308;28;8940;-67
2023/04/24 15:17:41;;;;;;;;;10.67;10.67;;;;;;;;5224376;28;9679;-67
2023/04/24 15:20:12;;;;;;;;;7.67;7.67;;;;;;;;5240575;28;8914;-67
2023/04/24 15:22:43;;;;;;;;;15.67;15.67;;;;;;;;5244097;28;12174;-67
2023/04/24 15:25:14;;;;;;;;;10.75;10.25;;;;;;;;5230386;28;9298;-68
2023/04/24 15:27:45;;;;;;;;;8.25;8.25;;;;;;;;5223914;28;8878;-67
2023/04/24 15:30:17;;;;;;;;;12.00;12.00;;;;;;;;5208038;28;8823;-67
2023/04/24 15:32:48;;;;;;;;;9.00;9.00;;;;;;;;5243638;28;8799;-67
2023/04/24 15:35:18;;;;;;;;;13.75;13.25;;;;;;;;5224969;28;8841;-67